createdAt,value
2018-11-04T00:01:10.475Z,101520.51
2018-11-04T00:03:39.216Z,101519.15
2018-11-04T00:06:10.470Z,101519.25
2018-11-04T00:08:43.012Z,101508.77
2018-11-04T00:11:13.511Z,101510.12
2018-11-04T00:13:41.919Z,101500.07
2018-11-04T00:16:10.356Z,101496.20
2018-11-04T00:18:38.767Z,101491.76
2018-11-04T00:21:07.214Z,101490.59
2018-11-04T00:23:35.588Z,101493.20
2018-11-04T00:26:04.114Z,101492.62
2018-11-04T00:28:32.554Z,101489.10
2018-11-04T00:31:01.045Z,101489.10
2018-11-04T00:33:29.460Z,101479.66
2018-11-04T00:35:57.903Z,101480.31
2018-11-04T00:38:26.290Z,101480.52
2018-11-04T00:40:54.745Z,101475.64
2018-11-04T00:43:23.195Z,101474.45
2018-11-04T00:45:51.583Z,101475.33
2018-11-04T00:48:20.076Z,101466.49
2018-11-04T00:50:48.534Z,101466.80
2018-11-04T00:53:16.952Z,101467.75
2018-11-04T00:55:48.137Z,101463.03
2018-11-04T00:58:16.586Z,101465.34
2018-11-04T01:00:45.103Z,101457.00
2018-11-04T01:03:13.491Z,101455.69
2018-11-04T01:05:41.867Z,101450.17
2018-11-04T01:08:10.313Z,101446.00
2018-11-04T01:10:38.707Z,101442.73
2018-11-04T01:13:07.136Z,101438.64
2018-11-04T01:15:35.524Z,101435.90
2018-11-04T01:18:04.015Z,101434.25
2018-11-04T01:20:32.416Z,101435.20
2018-11-04T01:23:00.835Z,101425.80
2018-11-04T01:25:29.749Z,101424.63
2018-11-04T01:27:59.146Z,101420.31
2018-11-04T01:30:27.603Z,101408.88
2018-11-04T01:32:55.964Z,101413.10
2018-11-04T01:35:24.423Z,101399.83
2018-11-04T01:37:52.813Z,101404.19
2018-11-04T01:40:21.213Z,101397.95
2018-11-04T01:42:50.545Z,101394.96
2018-11-04T01:45:19.596Z,101394.58
2018-11-04T01:47:48.827Z,101392.76
2018-11-04T01:50:17.221Z,101385.80
2018-11-04T01:52:46.202Z,101386.28
2018-11-04T01:55:18.040Z,101384.71
2018-11-04T01:57:47.393Z,101379.27
2018-11-04T02:00:16.937Z,101375.27
2018-11-04T02:02:46.015Z,101373.82
2018-11-04T02:05:14.774Z,101368.47
2018-11-04T02:07:43.205Z,101365.64
2018-11-04T02:10:12.983Z,101364.68
2018-11-04T02:12:41.422Z,101359.16
2018-11-04T02:15:11.376Z,101356.02
2018-11-04T02:17:39.875Z,101353.33
2018-11-04T02:20:10.086Z,101350.33
2018-11-04T02:22:38.569Z,101350.63
2018-11-04T02:25:07.892Z,101342.95
2018-11-04T02:27:36.344Z,101333.84
2018-11-04T02:30:05.198Z,101333.72
2018-11-04T02:32:33.594Z,101324.89
2018-11-04T02:35:02.054Z,101323.36
2018-11-04T02:37:30.504Z,101246.87
2018-11-04T02:39:58.954Z,101320.05
2018-11-04T02:42:27.392Z,101310.91
2018-11-04T02:44:55.844Z,101315.00
2018-11-04T02:47:24.280Z,101308.02
2018-11-04T02:49:52.675Z,101307.63
2018-11-04T02:52:21.210Z,101307.45
2018-11-04T02:54:49.620Z,101302.19
2018-11-04T02:57:18.004Z,101291.03
2018-11-04T02:59:46.428Z,101286.30
2018-11-04T03:02:14.844Z,101281.05
2018-11-04T03:04:43.271Z,101276.48
2018-11-04T03:07:11.710Z,101276.31
2018-11-04T03:09:40.127Z,101281.98
2018-11-04T03:12:08.568Z,101278.50
2018-11-04T03:14:36.962Z,101274.66
2018-11-04T03:17:05.556Z,101271.97
2018-11-04T03:19:33.923Z,101276.31
2018-11-04T03:22:02.311Z,101272.92
2018-11-04T03:24:30.842Z,101272.92
2018-11-04T03:26:59.211Z,101268.71
2018-11-04T03:29:28.219Z,101271.23
2018-11-04T03:31:56.595Z,101262.66
2018-11-04T03:34:25.343Z,101265.44
2018-11-04T03:36:54.755Z,101269.50
2018-11-04T03:39:23.218Z,101265.49
2018-11-04T03:41:52.870Z,101269.22
2018-11-04T03:44:21.388Z,101272.42
2018-11-04T03:46:50.643Z,101274.16
2018-11-04T03:49:20.473Z,101270.17
2018-11-04T03:51:48.870Z,101269.89
2018-11-04T03:54:17.896Z,101266.03
2018-11-04T03:56:46.586Z,101270.56
2018-11-04T03:59:15.000Z,101264.26
2018-11-04T04:01:43.425Z,101268.72
2018-11-04T04:04:11.821Z,101273.68
2018-11-04T04:06:40.243Z,101266.28
2018-11-04T04:09:09.727Z,101265.72
2018-11-04T04:11:39.183Z,101261.23
2018-11-04T04:14:08.678Z,101257.61
2018-11-04T04:16:37.614Z,101255.90
2018-11-04T04:19:06.402Z,101248.80
2018-11-04T04:21:34.807Z,101250.27
2018-11-04T04:24:03.223Z,101252.25
2018-11-04T04:26:31.609Z,101249.41
2018-11-04T04:29:00.025Z,101253.44
2018-11-04T04:31:28.579Z,101247.22
2018-11-04T04:33:57.015Z,101251.20
2018-11-04T04:36:25.424Z,101241.42
2018-11-04T04:38:53.854Z,101240.87
2018-11-04T04:41:22.292Z,101237.13
2018-11-04T04:43:50.740Z,101236.50
2018-11-04T04:46:19.160Z,101241.78
2018-11-04T04:48:47.606Z,101232.27
2018-11-04T04:51:16.013Z,101233.42
2018-11-04T04:53:44.430Z,101232.23
2018-11-04T04:56:12.879Z,101233.11
2018-11-04T04:58:41.294Z,101228.84
2018-11-04T05:01:09.673Z,101222.45
2018-11-04T05:03:38.058Z,101221.38
2018-11-04T05:06:06.492Z,101221.14
2018-11-04T05:08:34.875Z,101217.98
2018-11-04T05:11:03.336Z,101210.48
2018-11-04T05:13:31.741Z,101209.17
2018-11-04T05:16:00.180Z,101210.12
2018-11-04T05:18:28.593Z,101210.42
2018-11-04T05:20:57.014Z,101211.05
2018-11-04T05:23:25.415Z,101211.86
2018-11-04T05:25:53.836Z,101211.22
2018-11-04T05:28:22.235Z,101212.95
2018-11-04T05:30:50.633Z,101211.45
2018-11-04T05:33:19.086Z,101214.84
2018-11-04T05:35:47.540Z,101211.67
2018-11-04T05:38:15.972Z,101213.05
2018-11-04T05:40:44.367Z,101204.27
2018-11-04T05:43:12.847Z,101203.95
2018-11-04T05:45:41.216Z,101206.95
2018-11-04T05:48:09.654Z,101200.23
2018-11-04T05:50:38.062Z,101200.78
2018-11-04T05:53:06.493Z,101199.13
2018-11-04T05:55:34.918Z,101193.81
2018-11-04T05:58:03.326Z,101194.08
2018-11-04T06:00:31.769Z,101189.64
2018-11-04T06:03:00.177Z,101192.70
2018-11-04T06:05:28.572Z,101194.44
2018-11-04T06:07:56.977Z,101191.59
2018-11-04T06:10:25.398Z,101190.94
2018-11-04T06:12:53.825Z,101186.82
2018-11-04T06:15:22.248Z,101189.06
2018-11-04T06:17:50.645Z,101189.61
2018-11-04T06:20:19.034Z,101185.41
2018-11-04T06:22:47.420Z,101188.09
2018-11-04T06:25:15.813Z,101183.64
2018-11-04T06:27:44.241Z,101176.13
2018-11-04T06:30:13.468Z,101180.46
2018-11-04T06:32:42.734Z,101178.91
2018-11-04T06:35:11.140Z,101175.66
2018-11-04T06:37:39.606Z,101182.98
2018-11-04T06:40:08.914Z,101180.27
2018-11-04T06:42:37.393Z,101178.61
2018-11-04T06:45:06.783Z,101182.94
2018-11-04T06:47:35.208Z,101183.52
2018-11-04T06:50:03.674Z,101182.45
2018-11-04T06:52:32.145Z,101185.59
2018-11-04T06:55:00.506Z,101182.73
2018-11-04T06:57:28.942Z,101183.67
2018-11-04T06:59:57.364Z,101183.74
2018-11-04T07:02:25.838Z,101180.42
2018-11-04T07:04:54.275Z,101183.52
2018-11-04T07:07:22.678Z,101181.92
2018-11-04T07:09:51.137Z,101177.80
2018-11-04T07:12:19.579Z,101177.47
2018-11-04T07:14:48.004Z,101179.67
2018-11-04T07:17:16.403Z,101182.34
2018-11-04T07:19:44.833Z,101176.94
2018-11-04T07:22:13.285Z,101175.91
2018-11-04T07:24:41.711Z,101176.19
2018-11-04T07:27:10.125Z,101175.13
2018-11-04T07:29:38.613Z,101176.45
2018-11-04T07:32:07.132Z,101175.26
2018-11-04T07:34:35.497Z,101170.36
2018-11-04T07:37:04.036Z,101173.09
2018-11-04T07:39:32.497Z,101169.69
2018-11-04T07:42:00.908Z,101171.16
2018-11-04T07:44:29.433Z,101165.36
2018-11-04T07:46:58.701Z,101161.33
2018-11-04T07:49:27.144Z,101168.72
2018-11-04T07:51:55.576Z,101160.39
2018-11-04T07:54:24.020Z,101154.72
2018-11-04T07:56:52.548Z,101155.74
2018-11-04T07:59:20.988Z,101156.67
2018-11-04T08:01:49.482Z,101153.47
2018-11-04T08:04:17.950Z,101141.86
2018-11-04T08:06:46.354Z,101138.81
2018-11-04T08:09:14.787Z,101138.00
2018-11-04T08:11:43.208Z,101138.59
2018-11-04T08:14:11.691Z,101136.66
2018-11-04T08:16:40.084Z,101126.98
2018-11-04T08:19:09.641Z,101125.03
2018-11-04T08:21:38.455Z,101120.98
2018-11-04T08:24:07.226Z,101118.63
2018-11-04T08:26:36.125Z,101123.77
2018-11-04T08:29:04.602Z,101117.14
2018-11-04T08:31:33.080Z,101124.10
2018-11-04T08:34:01.496Z,101116.95
2018-11-04T08:36:29.973Z,101116.61
2018-11-04T08:38:58.400Z,101116.73
2018-11-04T08:41:26.873Z,101113.00
2018-11-04T08:43:55.316Z,101115.13
2018-11-04T08:46:23.791Z,101112.12
2018-11-04T08:48:52.224Z,101112.30
2018-11-04T08:51:20.672Z,101105.27
2018-11-04T08:53:49.117Z,101100.77
2018-11-04T08:56:17.576Z,101102.31
2018-11-04T08:58:45.990Z,101107.16
2018-11-04T09:01:14.448Z,101098.91
2018-11-04T09:03:42.916Z,101102.05
2018-11-04T09:06:11.341Z,101100.95
2018-11-04T09:08:39.863Z,101098.30
2018-11-04T09:11:08.262Z,101101.50
2018-11-04T09:13:36.675Z,100829.87
2018-11-04T09:16:05.201Z,101096.45
2018-11-04T09:18:33.633Z,101096.31
2018-11-04T09:21:02.087Z,101093.89
2018-11-04T09:23:30.555Z,101084.45
2018-11-04T09:25:59.024Z,101083.98
2018-11-04T09:28:27.526Z,101082.98
2018-11-04T09:30:56.000Z,101086.89
2018-11-04T09:33:24.490Z,101079.78
2018-11-04T09:35:53.117Z,101084.41
2018-11-04T09:38:21.429Z,101080.73
2018-11-04T09:40:49.906Z,101082.26
2018-11-04T09:43:18.390Z,101084.55
2018-11-04T09:45:46.945Z,101087.73
2018-11-04T09:48:15.375Z,101087.88
2018-11-04T09:50:43.827Z,101084.58
2018-11-04T09:53:12.237Z,101087.94
2018-11-04T09:55:41.290Z,101088.80
2018-11-04T09:58:09.896Z,101091.84
2018-11-04T10:00:38.360Z,101084.86
2018-11-04T10:03:06.761Z,101085.09
2018-11-04T10:05:35.217Z,101086.42
2018-11-04T10:08:03.729Z,101085.30
2018-11-04T10:10:32.189Z,101082.61
2018-11-04T10:13:00.668Z,101084.89
2018-11-04T10:15:29.084Z,101088.13
2018-11-04T10:17:57.465Z,101067.53
2018-11-04T10:20:26.233Z,101068.63
2018-11-04T10:22:54.324Z,101068.11
2018-11-04T10:25:22.781Z,101066.16
2018-11-04T10:27:51.196Z,101064.31
2018-11-04T10:30:19.693Z,101063.55
2018-11-04T10:32:48.118Z,101064.98
2018-11-04T10:35:16.563Z,101059.20
2018-11-04T10:37:45.079Z,101056.81
2018-11-04T10:40:13.960Z,101053.13
2018-11-04T10:42:42.399Z,101052.02
2018-11-04T10:45:11.714Z,101047.17
2018-11-04T10:47:40.187Z,101042.89
2018-11-04T10:50:10.291Z,101038.91
2018-11-04T10:52:38.728Z,101039.22
2018-11-04T10:55:07.956Z,101040.77
2018-11-04T10:57:36.424Z,101031.55
2018-11-04T11:00:05.937Z,101018.39
2018-11-04T11:02:34.458Z,101015.63
2018-11-04T11:05:02.915Z,101018.09
2018-11-04T11:07:31.384Z,101014.97
2018-11-04T11:09:59.866Z,101014.62
2018-11-04T11:12:28.312Z,101009.19
2018-11-04T11:14:56.744Z,100995.81
2018-11-04T11:17:25.134Z,100994.23
2018-11-04T11:19:53.560Z,100983.58
2018-11-04T11:22:22.095Z,100979.89
2018-11-04T11:24:50.485Z,100975.64
2018-11-04T11:27:18.953Z,100973.33
2018-11-04T11:29:47.419Z,100965.80
2018-11-04T11:32:15.885Z,100961.66
2018-11-04T11:34:44.321Z,100957.61
2018-11-04T11:37:12.759Z,100948.45
2018-11-04T11:39:41.177Z,100948.16
2018-11-04T11:42:09.657Z,100943.08
2018-11-04T11:44:38.114Z,100939.61
2018-11-04T11:47:06.786Z,100941.17
2018-11-04T11:49:35.267Z,100936.38
2018-11-04T11:52:03.703Z,100936.55
2018-11-04T11:54:32.125Z,100933.23
2018-11-04T11:57:00.572Z,100927.26
2018-11-04T11:59:29.102Z,100921.37
2018-11-04T12:01:57.494Z,100914.80
2018-11-04T12:04:25.869Z,100908.95
2018-11-04T12:06:54.380Z,100906.45
2018-11-04T12:09:22.863Z,100903.92
2018-11-04T12:11:51.329Z,100896.52
2018-11-04T12:14:19.770Z,100891.59
2018-11-04T12:16:48.464Z,100891.98
2018-11-04T12:19:16.966Z,100888.35
2018-11-04T12:21:45.453Z,100883.38
2018-11-04T12:24:13.926Z,100876.90
2018-11-04T12:26:42.445Z,100871.78
2018-11-04T12:29:10.947Z,100873.19
2018-11-04T12:31:39.380Z,100870.31
2018-11-04T12:34:07.814Z,100868.52
2018-11-04T12:36:36.320Z,100862.97
2018-11-04T12:39:05.777Z,100866.05
2018-11-04T12:41:34.228Z,100860.31
2018-11-04T12:44:02.726Z,100856.92
2018-11-04T12:46:31.182Z,100859.43
2018-11-04T12:48:59.691Z,100861.95
2018-11-04T12:51:28.333Z,100863.25
2018-11-04T12:53:56.726Z,100862.48
2018-11-04T12:56:25.135Z,100859.62
2018-11-04T12:58:53.652Z,100852.24
2018-11-04T13:01:22.106Z,100852.29
2018-11-04T13:03:50.605Z,100853.56
2018-11-04T13:06:19.083Z,100857.83
2018-11-04T13:08:47.600Z,100854.52
2018-11-04T13:11:16.079Z,100851.84
2018-11-04T13:13:44.594Z,100844.57
2018-11-04T13:16:13.104Z,100846.31
2018-11-04T13:18:41.921Z,100838.66
2018-11-04T13:21:10.478Z,100838.62
2018-11-04T13:23:38.877Z,100826.39
2018-11-04T13:26:07.385Z,100823.03
2018-11-04T13:28:35.784Z,100814.18
2018-11-04T13:31:04.305Z,100805.39
2018-11-04T13:33:32.800Z,100805.02
2018-11-04T13:36:01.426Z,100794.34
2018-11-04T13:38:30.050Z,100790.59
2018-11-04T13:41:00.292Z,100785.11
2018-11-04T13:43:29.677Z,100774.89
2018-11-04T13:45:58.171Z,100767.63
2018-11-04T13:48:26.615Z,100761.28
2018-11-04T13:50:55.067Z,100756.22
2018-11-04T13:53:23.509Z,100753.23
2018-11-04T13:55:52.004Z,100744.77
2018-11-04T13:58:21.641Z,100743.96
2018-11-04T14:00:50.132Z,100744.05
2018-11-04T14:03:18.626Z,100741.92
2018-11-04T14:05:47.153Z,100741.58
2018-11-04T14:08:15.615Z,100738.20
2018-11-04T14:10:44.071Z,100731.00
2018-11-04T14:13:12.598Z,100725.48
2018-11-04T14:15:42.290Z,100721.61
2018-11-04T14:18:10.757Z,100724.20
2018-11-04T14:20:40.948Z,100726.72
2018-11-04T14:23:09.393Z,100724.61
2018-11-04T14:25:37.855Z,100727.24
2018-11-04T14:28:06.325Z,100720.83
2018-11-04T14:30:34.764Z,100714.02
2018-11-04T14:33:03.229Z,100714.81
2018-11-04T14:35:31.670Z,100716.05
2018-11-04T14:38:00.206Z,100683.34
2018-11-04T14:40:28.714Z,100720.70
2018-11-04T14:42:57.214Z,100721.11
2018-11-04T14:45:25.698Z,100720.66
2018-11-04T14:47:54.319Z,100714.64
2018-11-04T14:50:22.790Z,100720.11
2018-11-04T14:52:51.230Z,100722.20
2018-11-04T14:55:19.658Z,100728.20
2018-11-04T14:57:48.140Z,100724.33
2018-11-04T15:00:17.056Z,100720.91
2018-11-04T15:02:45.507Z,100724.30
2018-11-04T15:05:14.013Z,100733.23
2018-11-04T15:07:42.487Z,100728.45
2018-11-04T15:10:12.832Z,100724.52
2018-11-04T15:12:41.406Z,100735.19
2018-11-04T15:15:12.122Z,100734.25
2018-11-04T15:17:41.176Z,100740.65
2018-11-04T15:20:10.616Z,100740.62
2018-11-04T15:22:42.926Z,100744.80
2018-11-04T15:25:11.347Z,100736.64
2018-11-04T15:27:39.865Z,100737.02
2018-11-04T15:30:09.358Z,100736.16
2018-11-04T15:32:37.890Z,100731.56
2018-11-04T15:35:06.464Z,100731.58
2018-11-04T15:37:34.908Z,100709.38
2018-11-04T15:40:03.563Z,100722.69
2018-11-04T15:42:32.133Z,100716.69
2018-11-04T15:45:00.576Z,100715.34
2018-11-04T15:47:29.086Z,100707.66
2018-11-04T15:49:57.509Z,100701.70
2018-11-04T15:52:25.975Z,100697.87
2018-11-04T15:54:54.489Z,100693.53
2018-11-04T15:57:22.961Z,100692.66
2018-11-04T15:59:51.416Z,100691.78
2018-11-04T16:02:19.937Z,100698.55
2018-11-04T16:04:48.376Z,100694.61
2018-11-04T16:07:16.893Z,100695.41
2018-11-04T16:09:45.308Z,100696.62
2018-11-04T16:12:13.781Z,100700.91
2018-11-04T16:14:42.185Z,100700.49
2018-11-04T16:17:10.608Z,100707.70
2018-11-04T16:19:39.013Z,100711.10
2018-11-04T16:22:07.467Z,100711.96
2018-11-04T16:24:35.907Z,100713.70
2018-11-04T16:27:04.393Z,100698.36
2018-11-04T16:29:32.827Z,100697.50
2018-11-04T16:32:01.437Z,100700.49
2018-11-04T16:34:29.780Z,100697.55
2018-11-04T16:36:58.247Z,100696.70
2018-11-04T16:39:26.741Z,100689.86
2018-11-04T16:41:55.243Z,100691.47
2018-11-04T16:44:23.894Z,100691.38
2018-11-04T16:46:52.207Z,100697.36
2018-11-04T16:49:20.655Z,100692.64
2018-11-04T16:51:49.118Z,100693.47
2018-11-04T16:54:17.598Z,100692.53
2018-11-04T16:56:46.023Z,100692.47
2018-11-04T16:59:14.472Z,100701.33
2018-11-04T17:01:42.918Z,100699.17
2018-11-04T17:04:11.409Z,100701.69
2018-11-04T17:06:39.866Z,100696.52
2018-11-04T17:09:10.924Z,100696.00
2018-11-04T17:11:39.394Z,100700.66
2018-11-04T17:14:08.116Z,100701.03
2018-11-04T17:16:38.012Z,100695.88
2018-11-04T17:19:07.085Z,100703.48
2018-11-04T17:21:37.418Z,100702.09
2018-11-04T17:24:05.903Z,100697.81
2018-11-04T17:26:34.377Z,100709.28
2018-11-04T17:29:02.809Z,100701.16
2018-11-04T17:31:31.260Z,100704.55
2018-11-04T17:33:59.715Z,100698.12
2018-11-04T17:36:28.280Z,100695.56
2018-11-04T17:38:56.657Z,100689.20
2018-11-04T17:41:25.182Z,100689.59
2018-11-04T17:43:53.718Z,100700.23
2018-11-04T17:46:22.136Z,100696.72
2018-11-04T17:48:50.659Z,100690.34
2018-11-04T17:51:20.150Z,100689.50
2018-11-04T17:53:48.593Z,100683.55
2018-11-04T17:56:17.028Z,100675.45
2018-11-04T17:58:45.504Z,100681.84
2018-11-04T18:01:13.975Z,100683.88
2018-11-04T18:03:43.137Z,100685.14
2018-11-04T18:06:11.638Z,100683.42
2018-11-04T18:08:40.305Z,100678.75
2018-11-04T18:11:08.775Z,100668.98
2018-11-04T18:13:37.229Z,100666.80
2018-11-04T18:16:05.785Z,100660.41
2018-11-04T18:18:34.308Z,100667.17
2018-11-04T18:21:02.810Z,100670.92
2018-11-04T18:23:31.313Z,100667.93
2018-11-04T18:25:59.741Z,100658.02
2018-11-04T18:28:28.157Z,100671.27
2018-11-04T18:30:56.701Z,100673.39
2018-11-04T18:33:25.167Z,100674.59
2018-11-04T18:35:53.692Z,100671.91
2018-11-04T18:38:22.103Z,100674.83
2018-11-04T18:40:50.596Z,100660.15
2018-11-04T18:43:19.040Z,100672.55
2018-11-04T18:45:47.514Z,100674.19
2018-11-04T18:48:15.963Z,100677.09
2018-11-04T18:50:44.380Z,100683.03
2018-11-04T18:53:12.833Z,100683.45
2018-11-04T18:55:41.263Z,100679.18
2018-11-04T18:58:09.715Z,100679.16
2018-11-04T19:00:38.135Z,100674.52
2018-11-04T19:03:06.632Z,100669.86
2018-11-04T19:05:35.257Z,100668.53
2018-11-04T19:08:04.867Z,100661.30
2018-11-04T19:10:33.354Z,100662.52
2018-11-04T19:13:01.850Z,100668.41
2018-11-04T19:15:30.880Z,100659.42
2018-11-04T19:17:59.356Z,100653.41
2018-11-04T19:20:27.821Z,100652.08
2018-11-04T19:22:56.307Z,100649.89
2018-11-04T19:25:24.739Z,100644.77
2018-11-04T19:27:53.222Z,100639.20
2018-11-04T19:30:21.666Z,100630.22
2018-11-04T19:32:51.209Z,100635.67
2018-11-04T19:35:19.668Z,100635.62
2018-11-04T19:37:48.156Z,100630.89
2018-11-04T19:40:17.412Z,100628.70
2018-11-04T19:42:46.010Z,100627.37
2018-11-04T19:45:14.415Z,100630.66
2018-11-04T19:47:42.898Z,100633.60
2018-11-04T19:50:12.682Z,100633.13
2018-11-04T19:52:41.582Z,100636.48
2018-11-04T19:55:10.703Z,100638.54
2018-11-04T19:57:39.125Z,100638.09
2018-11-04T20:00:13.196Z,100634.63
2018-11-04T20:02:41.737Z,100630.80
2018-11-04T20:05:11.991Z,100632.02
2018-11-04T20:07:40.444Z,100634.95
2018-11-04T20:10:11.598Z,100631.10
2018-11-04T20:12:45.274Z,100622.54
2018-11-04T20:15:13.743Z,100625.50
2018-11-04T20:17:42.248Z,100626.64
2018-11-04T20:20:14.481Z,100627.76
2018-11-04T20:22:42.984Z,100623.77
2018-11-04T20:25:16.558Z,100635.07
2018-11-04T20:27:45.005Z,100629.00
2018-11-04T20:30:14.155Z,100631.92
2018-11-04T20:32:47.844Z,100621.67
2018-11-04T20:35:16.772Z,100625.14
2018-11-04T20:37:45.346Z,100624.28
2018-11-04T20:40:19.088Z,100627.66
2018-11-04T20:42:47.574Z,100624.09
2018-11-04T20:45:16.059Z,100624.95
2018-11-04T20:49:55.343Z,100615.21
2018-11-04T20:52:23.758Z,100615.59
2018-11-04T20:54:52.282Z,100609.52
2018-11-04T20:57:26.017Z,100610.34
2018-11-04T20:59:54.459Z,100610.34
2018-11-04T21:02:23.091Z,100613.69
2018-11-04T21:04:51.475Z,100617.00
2018-11-04T21:07:19.927Z,100616.05
2018-11-04T21:09:48.432Z,100620.18
2018-11-04T21:12:16.864Z,100617.72
2018-11-04T21:14:45.301Z,100619.09
2018-11-04T21:17:13.802Z,100620.61
2018-11-04T21:19:42.334Z,100623.50
2018-11-04T21:22:11.648Z,100614.80
2018-11-04T21:24:40.404Z,100608.30
2018-11-04T21:27:08.940Z,100599.15
2018-11-04T21:29:38.033Z,100602.77
2018-11-04T21:32:06.770Z,100604.52
2018-11-04T21:34:35.252Z,100601.19
2018-11-04T21:37:04.461Z,100600.29
2018-11-04T21:39:32.864Z,100598.54
2018-11-04T21:42:01.461Z,100596.23
2018-11-04T21:44:29.979Z,100598.52
2018-11-04T21:46:58.456Z,100600.17
2018-11-04T21:49:26.969Z,100591.30
2018-11-04T21:51:55.368Z,100576.16
2018-11-04T21:54:23.814Z,100566.32
2018-11-04T21:56:52.304Z,100565.87
2018-11-04T21:59:20.767Z,100560.80
2018-11-04T22:01:49.703Z,100566.37
2018-11-04T22:04:18.275Z,100568.33
2018-11-04T22:06:46.645Z,100568.19
2018-11-04T22:09:15.095Z,100557.86
2018-11-04T22:11:43.549Z,100549.81
2018-11-04T22:14:11.948Z,100545.04
2018-11-04T22:16:40.513Z,100543.55
2018-11-04T22:19:08.974Z,100535.45
2018-11-04T22:21:37.445Z,100535.48
2018-11-04T22:24:06.014Z,100521.66
2018-11-04T22:26:34.439Z,100513.07
2018-11-04T22:29:02.874Z,100513.07
2018-11-04T22:31:31.287Z,100519.09
2018-11-04T22:33:59.717Z,100519.83
2018-11-04T22:36:28.137Z,100520.09
2018-11-04T22:38:56.589Z,100526.82
2018-11-04T22:41:25.009Z,100524.09
2018-11-04T22:43:53.482Z,100531.34
2018-11-04T22:46:21.936Z,100534.14
2018-11-04T22:48:50.418Z,100530.48
2018-11-04T22:51:18.830Z,100535.82
2018-11-04T22:53:47.325Z,100531.22
2018-11-04T22:56:15.768Z,100537.34
2018-11-04T22:58:44.187Z,100530.72
2018-11-04T23:01:12.561Z,100528.11
2018-11-04T23:03:41.040Z,100518.63
2018-11-04T23:06:09.544Z,100518.89
2018-11-04T23:08:37.962Z,100526.22
2018-11-04T23:11:06.410Z,100524.80
2018-11-04T23:13:34.852Z,100524.43
2018-11-04T23:16:03.288Z,100521.81
2018-11-04T23:18:31.761Z,100516.84
2018-11-04T23:21:00.176Z,100513.08
2018-11-04T23:23:28.633Z,100517.82
2018-11-04T23:25:57.041Z,100516.47
2018-11-04T23:28:25.469Z,100512.47
2018-11-04T23:30:54.026Z,100510.38
2018-11-04T23:33:22.484Z,100505.34
2018-11-04T23:35:50.900Z,100509.64
2018-11-04T23:38:19.288Z,100509.16
2018-11-04T23:40:47.697Z,100504.89
2018-11-04T23:57:39.145Z,100470.34
